sensor_id;sensor_type;location;lat;lon;timestamp;temperature;humidity
57843;DHT22;43673;51.058;3.734;2023-06-19T00:00:38;20.90;99.90
57843;DHT22;43673;51.058;3.734;2023-06-19T00:03:05;20.90;99.90
57843;DHT22;43673;51.058;3.734;2023-06-19T00:05:30;21.00;99.90
57843;DHT22;43673;51.058;3.734;2023-06-19T00:07:56;21.10;99.90
57843;DHT22;43673;51.058;3.734;2023-06-19T00:10:22;21.20;99.90
57843;DHT22;43673;51.058;3.734;2023-06-19T00:12:47;21.20;99.90
57843;DHT22;43673;51.058;3.734;2023-06-19T00:15:13;21.20;99.90
57843;DHT22;43673;51.058;3.734;2023-06-19T00:17:39;21.20;99.90
57843;DHT22;43673;51.058;3.734;2023-06-19T00:20:06;21.20;99.90
57843;DHT22;43673;51.058;3.734;2023-06-19T00:22:32;21.20;99.90
57843;DHT22;43673;51.058;3.734;2023-06-19T00:24:58;21.20;99.90
57843;DHT22;43673;51.058;3.734;2023-06-19T00:27:23;21.20;99.90
57843;DHT22;43673;51.058;3.734;2023-06-19T00:29:52;21.10;99.90
57843;DHT22;43673;51.058;3.734;2023-06-19T00:32:17;21.20;99.90
57843;DHT22;43673;51.058;3.734;2023-06-19T00:34:43;21.10;99.90
57843;DHT22;43673;51.058;3.734;2023-06-19T00:37:11;21.10;99.90
57843;DHT22;43673;51.058;3.734;2023-06-19T00:39:39;21.10;99.90
57843;DHT22;43673;51.058;3.734;2023-06-19T00:42:05;21.10;99.90
57843;DHT22;43673;51.058;3.734;2023-06-19T00:44:31;21.20;99.90
57843;DHT22;43673;51.058;3.734;2023-06-19T00:46:58;21.20;99.90
57843;DHT22;43673;51.058;3.734;2023-06-19T00:49:26;21.20;99.90
57843;DHT22;43673;51.058;3.734;2023-06-19T00:51:52;21.20;99.90
57843;DHT22;43673;51.058;3.734;2023-06-19T00:54:21;21.20;99.90
57843;DHT22;43673;51.058;3.734;2023-06-19T00:56:47;21.10;99.90
57843;DHT22;43673;51.058;3.734;2023-06-19T00:59:18;21.10;99.90
57843;DHT22;43673;51.058;3.734;2023-06-19T01:01:50;21.20;99.90
57843;DHT22;43673;51.058;3.734;2023-06-19T01:04:16;21.20;99.90
57843;DHT22;43673;51.058;3.734;2023-06-19T01:06:57;21.30;99.90
57843;DHT22;43673;51.058;3.734;2023-06-19T01:09:28;21.20;99.90
57843;DHT22;43673;51.058;3.734;2023-06-19T01:12:04;21.20;99.90
57843;DHT22;43673;51.058;3.734;2023-06-19T01:14:54;21.20;99.90
57843;DHT22;43673;51.058;3.734;2023-06-19T01:17:22;21.10;99.90
57843;DHT22;43673;51.058;3.734;2023-06-19T01:19:48;21.20;99.90
57843;DHT22;43673;51.058;3.734;2023-06-19T01:22:27;21.20;99.90
57843;DHT22;43673;51.058;3.734;2023-06-19T01:24:56;21.30;99.90
57843;DHT22;43673;51.058;3.734;2023-06-19T01:27:24;21.20;99.90
57843;DHT22;43673;51.058;3.734;2023-06-19T01:29:51;21.20;99.90
57843;DHT22;43673;51.058;3.734;2023-06-19T01:34:59;21.20;99.90
57843;DHT22;43673;51.058;3.734;2023-06-19T01:37:30;21.30;99.90
57843;DHT22;43673;51.058;3.734;2023-06-19T01:40:11;21.30;99.90
57843;DHT22;43673;51.058;3.734;2023-06-19T01:42:39;21.30;99.90
57843;DHT22;43673;51.058;3.734;2023-06-19T01:45:06;21.30;99.90
57843;DHT22;43673;51.058;3.734;2023-06-19T01:47:32;21.30;99.90
57843;DHT22;43673;51.058;3.734;2023-06-19T01:49:58;21.30;99.90
57843;DHT22;43673;51.058;3.734;2023-06-19T01:52:26;21.20;99.90
57843;DHT22;43673;51.058;3.734;2023-06-19T01:54:52;21.30;99.90
57843;DHT22;43673;51.058;3.734;2023-06-19T01:57:20;21.30;99.90
57843;DHT22;43673;51.058;3.734;2023-06-19T01:59:46;21.30;99.90
57843;DHT22;43673;51.058;3.734;2023-06-19T02:02:12;21.10;99.90
57843;DHT22;43673;51.058;3.734;2023-06-19T02:04:37;21.10;99.90
57843;DHT22;43673;51.058;3.734;2023-06-19T02:07:06;21.00;99.90
57843;DHT22;43673;51.058;3.734;2023-06-19T02:09:33;21.10;99.90
57843;DHT22;43673;51.058;3.734;2023-06-19T02:11:59;21.00;99.90
57843;DHT22;43673;51.058;3.734;2023-06-19T02:14:31;21.00;99.90
57843;DHT22;43673;51.058;3.734;2023-06-19T02:16:59;20.90;99.90
57843;DHT22;43673;51.058;3.734;2023-06-19T02:19:25;20.90;99.90
57843;DHT22;43673;51.058;3.734;2023-06-19T02:21:50;20.90;99.90
57843;DHT22;43673;51.058;3.734;2023-06-19T02:24:16;20.80;99.90
57843;DHT22;43673;51.058;3.734;2023-06-19T02:26:42;20.70;99.90
57843;DHT22;43673;51.058;3.734;2023-06-19T02:29:13;20.80;99.90
57843;DHT22;43673;51.058;3.734;2023-06-19T02:31:39;20.80;99.90
57843;DHT22;43673;51.058;3.734;2023-06-19T02:34:05;20.70;99.90
57843;DHT22;43673;51.058;3.734;2023-06-19T02:36:34;20.70;99.90
57843;DHT22;43673;51.058;3.734;2023-06-19T02:39:01;20.70;99.90
57843;DHT22;43673;51.058;3.734;2023-06-19T02:41:27;20.60;99.90
57843;DHT22;43673;51.058;3.734;2023-06-19T02:43:52;20.60;99.90
57843;DHT22;43673;51.058;3.734;2023-06-19T02:46:18;20.60;99.90
57843;DHT22;43673;51.058;3.734;2023-06-19T02:48:44;20.70;99.90
57843;DHT22;43673;51.058;3.734;2023-06-19T02:51:09;20.70;99.90
57843;DHT22;43673;51.058;3.734;2023-06-19T02:53:35;20.70;99.90
57843;DHT22;43673;51.058;3.734;2023-06-19T02:56:01;20.70;99.90
57843;DHT22;43673;51.058;3.734;2023-06-19T02:58:26;20.70;99.90
57843;DHT22;43673;51.058;3.734;2023-06-19T03:00:53;20.60;99.90
57843;DHT22;43673;51.058;3.734;2023-06-19T03:03:19;20.60;99.90
57843;DHT22;43673;51.058;3.734;2023-06-19T03:05:45;20.60;99.90
57843;DHT22;43673;51.058;3.734;2023-06-19T03:08:10;20.40;99.90
57843;DHT22;43673;51.058;3.734;2023-06-19T03:10:36;20.40;99.90
57843;DHT22;43673;51.058;3.734;2023-06-19T03:13:02;20.40;99.90
57843;DHT22;43673;51.058;3.734;2023-06-19T03:15:27;20.30;99.90
57843;DHT22;43673;51.058;3.734;2023-06-19T03:17:53;20.10;99.90
57843;DHT22;43673;51.058;3.734;2023-06-19T03:20:19;20.10;99.90
57843;DHT22;43673;51.058;3.734;2023-06-19T03:22:46;20.00;99.90
57843;DHT22;43673;51.058;3.734;2023-06-19T03:25:12;20.00;99.90
57843;DHT22;43673;51.058;3.734;2023-06-19T03:27:38;19.90;99.90
57843;DHT22;43673;51.058;3.734;2023-06-19T03:30:04;19.80;99.90
57843;DHT22;43673;51.058;3.734;2023-06-19T03:32:33;19.70;99.90
57843;DHT22;43673;51.058;3.734;2023-06-19T03:34:59;19.70;99.90
57843;DHT22;43673;51.058;3.734;2023-06-19T03:37:25;19.70;99.90
57843;DHT22;43673;51.058;3.734;2023-06-19T03:39:51;19.70;99.90
57843;DHT22;43673;51.058;3.734;2023-06-19T03:42:16;19.60;99.90
57843;DHT22;43673;51.058;3.734;2023-06-19T03:44:42;19.60;99.90
57843;DHT22;43673;51.058;3.734;2023-06-19T03:47:08;19.60;99.90
57843;DHT22;43673;51.058;3.734;2023-06-19T03:49:33;19.50;99.90
57843;DHT22;43673;51.058;3.734;2023-06-19T03:51:59;19.50;99.90
57843;DHT22;43673;51.058;3.734;2023-06-19T03:54:25;19.50;99.90
57843;DHT22;43673;51.058;3.734;2023-06-19T03:56:52;19.50;99.90
57843;DHT22;43673;51.058;3.734;2023-06-19T03:59:17;19.50;99.90
57843;DHT22;43673;51.058;3.734;2023-06-19T04:01:43;19.40;99.90
57843;DHT22;43673;51.058;3.734;2023-06-19T04:04:09;19.40;99.90
57843;DHT22;43673;51.058;3.734;2023-06-19T04:06:34;19.20;99.90
57843;DHT22;43673;51.058;3.734;2023-06-19T04:09:00;19.40;99.90
57843;DHT22;43673;51.058;3.734;2023-06-19T04:11:26;19.50;99.90
57843;DHT22;43673;51.058;3.734;2023-06-19T04:13:51;19.60;99.90
57843;DHT22;43673;51.058;3.734;2023-06-19T04:16:17;19.60;99.90
57843;DHT22;43673;51.058;3.734;2023-06-19T04:18:43;19.70;99.90
57843;DHT22;43673;51.058;3.734;2023-06-19T04:21:08;19.70;99.90
57843;DHT22;43673;51.058;3.734;2023-06-19T04:23:34;19.50;99.90
57843;DHT22;43673;51.058;3.734;2023-06-19T04:25:59;19.40;99.90
57843;DHT22;43673;51.058;3.734;2023-06-19T04:28:25;19.30;99.90
57843;DHT22;43673;51.058;3.734;2023-06-19T04:30:51;19.30;99.90
57843;DHT22;43673;51.058;3.734;2023-06-19T04:33:28;19.30;99.90
57843;DHT22;43673;51.058;3.734;2023-06-19T04:35:54;19.30;99.90
57843;DHT22;43673;51.058;3.734;2023-06-19T04:38:19;19.30;99.90
57843;DHT22;43673;51.058;3.734;2023-06-19T04:40:49;19.20;99.90
57843;DHT22;43673;51.058;3.734;2023-06-19T04:43:15;19.10;99.90
57843;DHT22;43673;51.058;3.734;2023-06-19T04:45:41;19.10;99.90
57843;DHT22;43673;51.058;3.734;2023-06-19T04:48:07;19.10;99.90
57843;DHT22;43673;51.058;3.734;2023-06-19T04:50:33;18.90;99.90
57843;DHT22;43673;51.058;3.734;2023-06-19T04:52:59;18.90;99.90
57843;DHT22;43673;51.058;3.734;2023-06-19T04:55:24;19.20;99.90
57843;DHT22;43673;51.058;3.734;2023-06-19T04:57:51;19.40;99.90
57843;DHT22;43673;51.058;3.734;2023-06-19T05:00:17;19.70;99.90
57843;DHT22;43673;51.058;3.734;2023-06-19T05:02:45;20.00;99.90
57843;DHT22;43673;51.058;3.734;2023-06-19T05:05:13;20.60;99.90
57843;DHT22;43673;51.058;3.734;2023-06-19T05:07:39;20.60;99.90
57843;DHT22;43673;51.058;3.734;2023-06-19T05:10:05;20.30;99.90
57843;DHT22;43673;51.058;3.734;2023-06-19T05:12:32;20.40;99.90
57843;DHT22;43673;51.058;3.734;2023-06-19T05:14:57;20.70;99.90
57843;DHT22;43673;51.058;3.734;2023-06-19T05:17:23;20.80;99.90
57843;DHT22;43673;51.058;3.734;2023-06-19T05:19:48;20.60;99.90
57843;DHT22;43673;51.058;3.734;2023-06-19T05:22:18;20.40;99.90
57843;DHT22;43673;51.058;3.734;2023-06-19T05:24:44;20.20;99.90
57843;DHT22;43673;51.058;3.734;2023-06-19T05:27:10;20.10;99.90
57843;DHT22;43673;51.058;3.734;2023-06-19T05:29:36;20.10;99.90
57843;DHT22;43673;51.058;3.734;2023-06-19T05:32:02;20.30;99.90
57843;DHT22;43673;51.058;3.734;2023-06-19T05:34:27;20.50;99.90
57843;DHT22;43673;51.058;3.734;2023-06-19T05:36:53;20.60;99.90
57843;DHT22;43673;51.058;3.734;2023-06-19T05:39:19;20.80;99.90
57843;DHT22;43673;51.058;3.734;2023-06-19T05:41:44;21.40;99.90
57843;DHT22;43673;51.058;3.734;2023-06-19T05:44:14;22.00;99.90
57843;DHT22;43673;51.058;3.734;2023-06-19T05:46:44;22.20;99.90
57843;DHT22;43673;51.058;3.734;2023-06-19T05:49:09;22.10;99.90
57843;DHT22;43673;51.058;3.734;2023-06-19T05:51:35;21.80;99.90
57843;DHT22;43673;51.058;3.734;2023-06-19T05:54:01;21.60;99.90
57843;DHT22;43673;51.058;3.734;2023-06-19T05:56:32;21.60;99.90
57843;DHT22;43673;51.058;3.734;2023-06-19T05:58:59;22.10;99.90
57843;DHT22;43673;51.058;3.734;2023-06-19T06:01:25;22.80;99.90
57843;DHT22;43673;51.058;3.734;2023-06-19T06:03:53;23.50;99.90
57843;DHT22;43673;51.058;3.734;2023-06-19T06:06:19;24.60;99.90
57843;DHT22;43673;51.058;3.734;2023-06-19T06:08:45;25.00;99.90
57843;DHT22;43673;51.058;3.734;2023-06-19T06:11:11;24.80;99.90
57843;DHT22;43673;51.058;3.734;2023-06-19T06:13:36;24.20;99.90
57843;DHT22;43673;51.058;3.734;2023-06-19T06:16:02;23.60;99.90
57843;DHT22;43673;51.058;3.734;2023-06-19T06:18:28;23.30;99.90
57843;DHT22;43673;51.058;3.734;2023-06-19T06:20:56;23.00;99.90
57843;DHT22;43673;51.058;3.734;2023-06-19T06:23:24;23.20;99.90
57843;DHT22;43673;51.058;3.734;2023-06-19T06:25:50;23.10;99.90
57843;DHT22;43673;51.058;3.734;2023-06-19T06:28:16;22.70;99.90
57843;DHT22;43673;51.058;3.734;2023-06-19T06:30:43;22.70;99.90
57843;DHT22;43673;51.058;3.734;2023-06-19T06:33:09;22.60;99.90
57843;DHT22;43673;51.058;3.734;2023-06-19T06:35:35;22.60;99.90
57843;DHT22;43673;51.058;3.734;2023-06-19T06:38:04;22.70;99.90
57843;DHT22;43673;51.058;3.734;2023-06-19T06:40:30;22.50;99.90
57843;DHT22;43673;51.058;3.734;2023-06-19T06:42:56;22.20;99.90
57843;DHT22;43673;51.058;3.734;2023-06-19T06:45:21;22.30;99.90
57843;DHT22;43673;51.058;3.734;2023-06-19T06:47:47;22.00;99.90
57843;DHT22;43673;51.058;3.734;2023-06-19T06:50:13;22.00;99.90
57843;DHT22;43673;51.058;3.734;2023-06-19T06:52:38;22.20;99.90
57843;DHT22;43673;51.058;3.734;2023-06-19T06:55:04;22.50;99.90
57843;DHT22;43673;51.058;3.734;2023-06-19T06:57:30;22.70;99.90
57843;DHT22;43673;51.058;3.734;2023-06-19T06:59:56;22.60;99.90
57843;DHT22;43673;51.058;3.734;2023-06-19T07:02:21;22.70;99.90
57843;DHT22;43673;51.058;3.734;2023-06-19T07:04:47;22.90;99.90
57843;DHT22;43673;51.058;3.734;2023-06-19T07:07:13;23.40;99.90
57843;DHT22;43673;51.058;3.734;2023-06-19T07:09:39;23.50;99.90
57843;DHT22;43673;51.058;3.734;2023-06-19T07:12:05;23.40;99.90
57843;DHT22;43673;51.058;3.734;2023-06-19T07:14:32;23.40;99.90
57843;DHT22;43673;51.058;3.734;2023-06-19T07:16:58;23.20;99.90
57843;DHT22;43673;51.058;3.734;2023-06-19T07:19:24;23.40;99.90
57843;DHT22;43673;51.058;3.734;2023-06-19T07:21:52;23.90;99.90
57843;DHT22;43673;51.058;3.734;2023-06-19T07:24:18;24.50;99.90
57843;DHT22;43673;51.058;3.734;2023-06-19T07:26:46;24.70;99.90
57843;DHT22;43673;51.058;3.734;2023-06-19T07:29:12;24.90;99.90
57843;DHT22;43673;51.058;3.734;2023-06-19T07:31:38;24.50;99.90
57843;DHT22;43673;51.058;3.734;2023-06-19T07:34:04;24.00;99.90
57843;DHT22;43673;51.058;3.734;2023-06-19T07:36:29;23.90;99.90
57843;DHT22;43673;51.058;3.734;2023-06-19T07:38:55;24.10;99.90
57843;DHT22;43673;51.058;3.734;2023-06-19T07:41:21;24.20;99.90
57843;DHT22;43673;51.058;3.734;2023-06-19T07:43:47;24.10;99.90
57843;DHT22;43673;51.058;3.734;2023-06-19T07:46:12;24.20;99.90
57843;DHT22;43673;51.058;3.734;2023-06-19T07:48:41;24.20;99.90
57843;DHT22;43673;51.058;3.734;2023-06-19T07:51:07;24.30;99.90
57843;DHT22;43673;51.058;3.734;2023-06-19T07:53:32;24.10;99.90
57843;DHT22;43673;51.058;3.734;2023-06-19T07:55:58;24.50;99.90
57843;DHT22;43673;51.058;3.734;2023-06-19T07:58:24;25.00;99.90
57843;DHT22;43673;51.058;3.734;2023-06-19T08:00:49;25.20;99.90
57843;DHT22;43673;51.058;3.734;2023-06-19T08:03:15;25.50;99.90
57843;DHT22;43673;51.058;3.734;2023-06-19T08:05:41;26.00;99.90
57843;DHT22;43673;51.058;3.734;2023-06-19T08:08:06;26.40;99.90
57843;DHT22;43673;51.058;3.734;2023-06-19T08:10:32;26.40;99.90
57843;DHT22;43673;51.058;3.734;2023-06-19T08:12:58;26.40;99.90
57843;DHT22;43673;51.058;3.734;2023-06-19T08:15:24;26.50;99.90
57843;DHT22;43673;51.058;3.734;2023-06-19T08:17:49;26.60;99.90
57843;DHT22;43673;51.058;3.734;2023-06-19T08:20:15;26.40;99.90
57843;DHT22;43673;51.058;3.734;2023-06-19T08:22:41;26.10;99.90
57843;DHT22;43673;51.058;3.734;2023-06-19T08:25:07;25.90;99.90
57843;DHT22;43673;51.058;3.734;2023-06-19T08:27:32;25.80;99.90
57843;DHT22;43673;51.058;3.734;2023-06-19T08:29:58;25.60;99.90
57843;DHT22;43673;51.058;3.734;2023-06-19T08:32:24;25.80;99.90
57843;DHT22;43673;51.058;3.734;2023-06-19T08:34:53;26.30;99.90
57843;DHT22;43673;51.058;3.734;2023-06-19T08:37:19;26.70;99.90
57843;DHT22;43673;51.058;3.734;2023-06-19T08:39:44;27.00;99.90
57843;DHT22;43673;51.058;3.734;2023-06-19T08:42:10;28.80;99.60
57843;DHT22;43673;51.058;3.734;2023-06-19T08:44:36;30.60;96.00
57843;DHT22;43673;51.058;3.734;2023-06-19T08:47:05;31.00;94.10
57843;DHT22;43673;51.058;3.734;2023-06-19T08:49:33;31.60;92.50
57843;DHT22;43673;51.058;3.734;2023-06-19T08:52:00;32.20;91.00
57843;DHT22;43673;51.058;3.734;2023-06-19T08:54:26;33.00;88.70
57843;DHT22;43673;51.058;3.734;2023-06-19T08:56:52;33.60;85.70
57843;DHT22;43673;51.058;3.734;2023-06-19T08:59:20;33.00;84.80
57843;DHT22;43673;51.058;3.734;2023-06-19T09:01:52;33.20;83.10
57843;DHT22;43673;51.058;3.734;2023-06-19T09:04:27;33.70;82.70
57843;DHT22;43673;51.058;3.734;2023-06-19T09:06:59;34.20;79.50
57843;DHT22;43673;51.058;3.734;2023-06-19T09:09:26;34.40;78.40
57843;DHT22;43673;51.058;3.734;2023-06-19T09:12:02;34.50;77.80
57843;DHT22;43673;51.058;3.734;2023-06-19T09:14:46;33.60;76.20
57843;DHT22;43673;51.058;3.734;2023-06-19T09:17:19;32.70;79.10
57843;DHT22;43673;51.058;3.734;2023-06-19T09:19:49;32.10;81.00
57843;DHT22;43673;51.058;3.734;2023-06-19T09:22:17;31.60;83.80
57843;DHT22;43673;51.058;3.734;2023-06-19T09:24:47;32.10;82.70
57843;DHT22;43673;51.058;3.734;2023-06-19T09:27:15;32.40;82.20
57843;DHT22;43673;51.058;3.734;2023-06-19T09:29:48;33.20;80.20
57843;DHT22;43673;51.058;3.734;2023-06-19T09:32:22;33.20;79.40
57843;DHT22;43673;51.058;3.734;2023-06-19T09:34:50;32.90;78.40
57843;DHT22;43673;51.058;3.734;2023-06-19T09:37:26;33.40;77.90
57843;DHT22;43673;51.058;3.734;2023-06-19T09:39:54;33.40;77.70
57843;DHT22;43673;51.058;3.734;2023-06-19T09:42:33;34.40;75.90
57843;DHT22;43673;51.058;3.734;2023-06-19T09:45:04;33.60;76.30
57843;DHT22;43673;51.058;3.734;2023-06-19T09:50:01;33.70;75.10
57843;DHT22;43673;51.058;3.734;2023-06-19T09:52:28;33.40;74.80
57843;DHT22;43673;51.058;3.734;2023-06-19T09:54:55;33.80;73.80
57843;DHT22;43673;51.058;3.734;2023-06-19T09:57:21;34.80;72.20
57843;DHT22;43673;51.058;3.734;2023-06-19T09:59:49;36.60;69.70
57843;DHT22;43673;51.058;3.734;2023-06-19T10:02:17;37.70;67.70
57843;DHT22;43673;51.058;3.734;2023-06-19T10:04:50;37.00;64.90
57843;DHT22;43673;51.058;3.734;2023-06-19T10:07:21;36.10;66.80
57843;DHT22;43673;51.058;3.734;2023-06-19T10:12:45;37.20;63.80
57843;DHT22;43673;51.058;3.734;2023-06-19T10:17:48;38.30;62.40
57843;DHT22;43673;51.058;3.734;2023-06-19T10:20:25;39.20;60.40
57843;DHT22;43673;51.058;3.734;2023-06-19T10:23:06;38.00;60.80
57843;DHT22;43673;51.058;3.734;2023-06-19T10:25:34;38.30;60.00
57843;DHT22;43673;51.058;3.734;2023-06-19T10:28:01;38.10;60.00
57843;DHT22;43673;51.058;3.734;2023-06-19T10:30:27;38.20;59.10
57843;DHT22;43673;51.058;3.734;2023-06-19T10:32:55;38.60;58.20
57843;DHT22;43673;51.058;3.734;2023-06-19T10:35:21;38.60;57.90
57843;DHT22;43673;51.058;3.734;2023-06-19T10:37:47;37.20;59.10
57843;DHT22;43673;51.058;3.734;2023-06-19T10:40:14;37.20;59.20
57843;DHT22;43673;51.058;3.734;2023-06-19T10:42:40;37.20;59.40
57843;DHT22;43673;51.058;3.734;2023-06-19T10:45:09;37.30;59.10
57843;DHT22;43673;51.058;3.734;2023-06-19T10:47:35;37.90;57.50
57843;DHT22;43673;51.058;3.734;2023-06-19T10:50:03;37.50;56.80
57843;DHT22;43673;51.058;3.734;2023-06-19T10:52:29;38.60;57.20
57843;DHT22;43673;51.058;3.734;2023-06-19T10:54:56;38.60;57.80
57843;DHT22;43673;51.058;3.734;2023-06-19T10:57:29;39.00;57.00
57843;DHT22;43673;51.058;3.734;2023-06-19T10:59:55;38.70;56.30
57843;DHT22;43673;51.058;3.734;2023-06-19T11:02:21;38.30;56.30
57843;DHT22;43673;51.058;3.734;2023-06-19T11:04:47;36.90;57.70
57843;DHT22;43673;51.058;3.734;2023-06-19T11:07:13;36.80;58.40
57843;DHT22;43673;51.058;3.734;2023-06-19T11:09:38;36.20;59.00
57843;DHT22;43673;51.058;3.734;2023-06-19T11:12:05;35.60;59.50
57843;DHT22;43673;51.058;3.734;2023-06-19T11:14:33;35.20;60.80
57843;DHT22;43673;51.058;3.734;2023-06-19T11:17:06;34.50;62.50
57843;DHT22;43673;51.058;3.734;2023-06-19T11:19:32;34.50;62.80
57843;DHT22;43673;51.058;3.734;2023-06-19T11:22:02;33.70;63.10
57843;DHT22;43673;51.058;3.734;2023-06-19T11:24:29;32.90;64.70
57843;DHT22;43673;51.058;3.734;2023-06-19T11:26:56;32.10;66.70
57843;DHT22;43673;51.058;3.734;2023-06-19T11:29:29;31.70;67.80
57843;DHT22;43673;51.058;3.734;2023-06-19T11:32:06;31.30;68.30
57843;DHT22;43673;51.058;3.734;2023-06-19T11:34:34;31.10;69.00
57843;DHT22;43673;51.058;3.734;2023-06-19T11:37:11;30.80;70.70
57843;DHT22;43673;51.058;3.734;2023-06-19T11:39:37;30.30;70.50
57843;DHT22;43673;51.058;3.734;2023-06-19T11:42:03;30.00;71.40
57843;DHT22;43673;51.058;3.734;2023-06-19T11:44:29;30.00;73.10
57843;DHT22;43673;51.058;3.734;2023-06-19T11:46:57;30.00;72.70
57843;DHT22;43673;51.058;3.734;2023-06-19T11:49:26;29.60;73.20
57843;DHT22;43673;51.058;3.734;2023-06-19T11:51:53;29.70;74.30
57843;DHT22;43673;51.058;3.734;2023-06-19T11:54:19;29.40;73.90
57843;DHT22;43673;51.058;3.734;2023-06-19T11:56:46;29.20;74.90
57843;DHT22;43673;51.058;3.734;2023-06-19T11:59:13;29.20;75.20
57843;DHT22;43673;51.058;3.734;2023-06-19T12:01:39;29.00;75.70
57843;DHT22;43673;51.058;3.734;2023-06-19T12:04:05;29.30;76.00
57843;DHT22;43673;51.058;3.734;2023-06-19T12:06:31;29.20;75.40
57843;DHT22;43673;51.058;3.734;2023-06-19T12:08:57;29.20;75.60
57843;DHT22;43673;51.058;3.734;2023-06-19T12:11:23;29.10;75.10
57843;DHT22;43673;51.058;3.734;2023-06-19T12:13:50;29.20;74.90
57843;DHT22;43673;51.058;3.734;2023-06-19T12:16:15;28.80;75.20
57843;DHT22;43673;51.058;3.734;2023-06-19T12:18:41;28.60;76.20
57843;DHT22;43673;51.058;3.734;2023-06-19T12:21:07;28.60;76.90
57843;DHT22;43673;51.058;3.734;2023-06-19T12:23:33;28.40;76.10
57843;DHT22;43673;51.058;3.734;2023-06-19T12:25:59;28.50;76.40
57843;DHT22;43673;51.058;3.734;2023-06-19T12:28:25;28.50;77.00
57843;DHT22;43673;51.058;3.734;2023-06-19T12:30:51;28.60;76.00
57843;DHT22;43673;51.058;3.734;2023-06-19T12:33:20;28.90;76.30
57843;DHT22;43673;51.058;3.734;2023-06-19T12:35:46;28.90;75.40
57843;DHT22;43673;51.058;3.734;2023-06-19T12:38:12;29.00;75.40
57843;DHT22;43673;51.058;3.734;2023-06-19T12:40:38;28.90;75.70
57843;DHT22;43673;51.058;3.734;2023-06-19T12:43:04;28.40;75.30
57843;DHT22;43673;51.058;3.734;2023-06-19T12:45:30;28.30;75.90
57843;DHT22;43673;51.058;3.734;2023-06-19T12:47:56;28.30;74.90
57843;DHT22;43673;51.058;3.734;2023-06-19T12:50:22;28.10;75.70
57843;DHT22;43673;51.058;3.734;2023-06-19T12:52:48;28.10;75.60
57843;DHT22;43673;51.058;3.734;2023-06-19T12:55:14;28.20;76.30
57843;DHT22;43673;51.058;3.734;2023-06-19T12:57:39;28.30;77.20
57843;DHT22;43673;51.058;3.734;2023-06-19T13:00:10;28.40;77.80
57843;DHT22;43673;51.058;3.734;2023-06-19T13:02:36;28.40;76.50
57843;DHT22;43673;51.058;3.734;2023-06-19T13:05:02;28.30;76.30
57843;DHT22;43673;51.058;3.734;2023-06-19T13:07:28;28.20;76.40
57843;DHT22;43673;51.058;3.734;2023-06-19T13:09:54;28.10;77.30
57843;DHT22;43673;51.058;3.734;2023-06-19T13:12:22;28.30;76.10
57843;DHT22;43673;51.058;3.734;2023-06-19T13:14:47;28.40;76.60
57843;DHT22;43673;51.058;3.734;2023-06-19T13:17:13;28.50;75.80
57843;DHT22;43673;51.058;3.734;2023-06-19T13:19:40;28.40;75.40
57843;DHT22;43673;51.058;3.734;2023-06-19T13:22:06;28.40;75.20
57843;DHT22;43673;51.058;3.734;2023-06-19T13:24:33;28.30;74.90
57843;DHT22;43673;51.058;3.734;2023-06-19T13:27:00;28.10;76.30
57843;DHT22;43673;51.058;3.734;2023-06-19T13:29:25;28.20;74.20
57843;DHT22;43673;51.058;3.734;2023-06-19T13:31:51;28.30;73.50
57843;DHT22;43673;51.058;3.734;2023-06-19T13:34:17;28.30;74.80
57843;DHT22;43673;51.058;3.734;2023-06-19T13:36:44;28.10;75.00
57843;DHT22;43673;51.058;3.734;2023-06-19T13:39:09;27.70;75.80
57843;DHT22;43673;51.058;3.734;2023-06-19T13:41:36;27.90;75.20
57843;DHT22;43673;51.058;3.734;2023-06-19T13:44:02;28.00;75.30
57843;DHT22;43673;51.058;3.734;2023-06-19T13:46:28;28.20;74.50
57843;DHT22;43673;51.058;3.734;2023-06-19T13:48:56;28.20;74.50
57843;DHT22;43673;51.058;3.734;2023-06-19T13:51:22;28.10;75.60
57843;DHT22;43673;51.058;3.734;2023-06-19T13:53:48;28.10;74.50
57843;DHT22;43673;51.058;3.734;2023-06-19T13:56:15;28.10;74.70
57843;DHT22;43673;51.058;3.734;2023-06-19T13:58:41;28.20;74.70
57843;DHT22;43673;51.058;3.734;2023-06-19T14:01:06;28.30;74.20
57843;DHT22;43673;51.058;3.734;2023-06-19T14:03:32;28.40;74.50
57843;DHT22;43673;51.058;3.734;2023-06-19T14:05:58;28.60;73.30
57843;DHT22;43673;51.058;3.734;2023-06-19T14:08:24;28.50;73.20
57843;DHT22;43673;51.058;3.734;2023-06-19T14:10:50;28.60;73.30
57843;DHT22;43673;51.058;3.734;2023-06-19T14:13:16;28.50;73.80
57843;DHT22;43673;51.058;3.734;2023-06-19T14:15:42;28.50;74.00
57843;DHT22;43673;51.058;3.734;2023-06-19T14:18:08;28.50;73.80
57843;DHT22;43673;51.058;3.734;2023-06-19T14:20:34;28.60;74.30
57843;DHT22;43673;51.058;3.734;2023-06-19T14:22:59;28.70;73.10
57843;DHT22;43673;51.058;3.734;2023-06-19T14:25:25;28.80;72.10
57843;DHT22;43673;51.058;3.734;2023-06-19T14:27:51;29.10;71.20
57843;DHT22;43673;51.058;3.734;2023-06-19T14:30:16;29.20;71.30
57843;DHT22;43673;51.058;3.734;2023-06-19T14:32:42;29.30;71.00
57843;DHT22;43673;51.058;3.734;2023-06-19T14:35:08;29.30;71.60
57843;DHT22;43673;51.058;3.734;2023-06-19T14:37:34;29.10;72.20
57843;DHT22;43673;51.058;3.734;2023-06-19T14:39:59;29.00;71.50
57843;DHT22;43673;51.058;3.734;2023-06-19T14:42:25;29.00;70.60
57843;DHT22;43673;51.058;3.734;2023-06-19T14:44:51;29.10;71.30
57843;DHT22;43673;51.058;3.734;2023-06-19T14:47:17;29.00;72.00
57843;DHT22;43673;51.058;3.734;2023-06-19T14:49:42;29.00;73.20
57843;DHT22;43673;51.058;3.734;2023-06-19T14:52:08;29.10;72.80
57843;DHT22;43673;51.058;3.734;2023-06-19T14:54:34;29.20;71.40
57843;DHT22;43673;51.058;3.734;2023-06-19T14:56:59;29.20;70.80
57843;DHT22;43673;51.058;3.734;2023-06-19T14:59:25;29.10;70.80
57843;DHT22;43673;51.058;3.734;2023-06-19T15:01:51;29.20;71.20
57843;DHT22;43673;51.058;3.734;2023-06-19T15:04:17;29.00;71.30
57843;DHT22;43673;51.058;3.734;2023-06-19T15:06:42;28.90;71.00
57843;DHT22;43673;51.058;3.734;2023-06-19T15:09:08;28.80;71.40
57843;DHT22;43673;51.058;3.734;2023-06-19T15:11:34;28.80;71.20
57843;DHT22;43673;51.058;3.734;2023-06-19T15:14:00;28.40;70.90
57843;DHT22;43673;51.058;3.734;2023-06-19T15:16:26;28.40;71.50
57843;DHT22;43673;51.058;3.734;2023-06-19T15:18:52;28.40;71.60
57843;DHT22;43673;51.058;3.734;2023-06-19T15:21:21;28.40;72.80
57843;DHT22;43673;51.058;3.734;2023-06-19T15:23:47;28.50;72.80
57843;DHT22;43673;51.058;3.734;2023-06-19T15:26:23;28.30;72.80
57843;DHT22;43673;51.058;3.734;2023-06-19T15:28:49;28.30;73.30
57843;DHT22;43673;51.058;3.734;2023-06-19T15:31:22;28.40;72.70
57843;DHT22;43673;51.058;3.734;2023-06-19T15:33:49;28.20;72.20
57843;DHT22;43673;51.058;3.734;2023-06-19T15:36:16;28.40;73.70
57843;DHT22;43673;51.058;3.734;2023-06-19T15:38:45;28.40;73.80